createdAt,value
2023-03-07T00:04:33.647Z,39.20
2023-03-07T00:09:36.452Z,45.10
2023-03-07T00:14:39.516Z,47.50
2023-03-07T00:19:43.730Z,48.40
2023-03-07T00:24:48.675Z,49.70
2023-03-07T00:29:51.585Z,46.00
2023-03-07T00:34:55.689Z,45.80
2023-03-07T00:39:58.839Z,50.20
2023-03-07T00:45:01.721Z,46.90
2023-03-07T00:50:05.150Z,38.90
2023-03-07T00:55:08.959Z,38.60
2023-03-07T01:00:12.490Z,40.00
2023-03-07T01:05:15.980Z,37.90
2023-03-07T01:10:18.884Z,37.90
2023-03-07T01:15:22.912Z,37.90
2023-03-07T01:20:25.826Z,39.60
2023-03-07T01:25:28.843Z,38.10
2023-03-07T01:30:31.699Z,39.20
2023-03-07T01:35:40.635Z,32.20
2023-03-07T01:40:43.522Z,37.90
2023-03-07T01:46:27.073Z,38.00
2023-03-07T01:51:31.926Z,37.20
2023-03-07T01:56:36.529Z,36.10
2023-03-07T02:01:43.051Z,34.60
2023-03-07T02:06:46.047Z,38.70
2023-03-07T02:12:07.805Z,36.10
2023-03-07T02:17:10.565Z,35.20
2023-03-07T02:22:17.127Z,36.60
2023-03-07T02:27:19.982Z,34.60
2023-03-07T02:32:23.006Z,35.00
2023-03-07T02:37:34.629Z,35.40
2023-03-07T02:42:39.272Z,33.40
2023-03-07T02:47:43.293Z,33.30
2023-03-07T02:52:46.311Z,34.30
2023-03-07T02:57:49.094Z,34.40
2023-03-07T03:02:51.934Z,34.50
2023-03-07T03:07:55.014Z,37.20
2023-03-07T03:12:57.807Z,41.00
2023-03-07T03:18:06.875Z,42.70
2023-03-07T03:23:09.886Z,47.00
2023-03-07T03:28:15.463Z,48.80
2023-03-07T03:33:18.320Z,46.70
2023-03-07T03:38:21.199Z,51.80
2023-03-07T03:43:25.408Z,48.50
2023-03-07T03:48:28.313Z,48.10
2023-03-07T03:53:32.770Z,51.30
2023-03-07T03:58:36.257Z,46.90
2023-03-07T04:03:41.638Z,50.00
2023-03-07T04:08:46.519Z,52.00
2023-03-07T04:13:49.445Z,61.20
2023-03-07T04:18:52.423Z,58.00
2023-03-07T04:23:57.483Z,73.20
2023-03-07T04:29:00.514Z,83.00
2023-03-07T04:34:03.410Z,81.90
2023-03-07T04:39:06.371Z,76.60
2023-03-07T04:44:09.336Z,77.40
2023-03-07T04:49:12.250Z,73.50
2023-03-07T04:54:15.213Z,72.70
2023-03-07T04:59:21.312Z,67.90
2023-03-07T05:04:25.283Z,69.70
2023-03-07T05:09:29.322Z,73.90
2023-03-07T05:14:32.195Z,69.40
2023-03-07T05:19:35.233Z,54.80
2023-03-07T05:24:38.574Z,58.90
2023-03-07T05:29:41.410Z,59.30
2023-03-07T05:34:47.018Z,59.50
2023-03-07T05:39:49.810Z,57.40
2023-03-07T05:44:54.512Z,56.80
2023-03-07T05:49:57.340Z,57.80
2023-03-07T05:55:00.152Z,59.10
2023-03-07T06:00:06.433Z,55.50
2023-03-07T06:05:09.660Z,54.20
2023-03-07T06:10:12.654Z,59.00
2023-03-07T06:15:15.577Z,58.40
2023-03-07T06:20:20.818Z,51.80
2023-03-07T06:25:23.747Z,53.40
2023-03-07T06:30:28.278Z,68.50
2023-03-07T06:35:31.210Z,61.90
2023-03-07T06:40:34.199Z,60.30
2023-03-07T06:45:37.382Z,58.80
2023-03-07T06:50:40.219Z,63.10
2023-03-07T06:55:43.084Z,60.70
2023-03-07T07:00:45.997Z,62.00
2023-03-07T07:05:48.957Z,62.30
2023-03-07T07:10:51.787Z,60.80
2023-03-07T07:15:54.742Z,69.20
2023-03-07T07:20:57.658Z,64.10
2023-03-07T07:26:00.470Z,58.40
2023-03-07T07:31:04.228Z,54.80
2023-03-07T07:36:08.390Z,58.30
2023-03-07T07:41:11.344Z,56.80
2023-03-07T07:46:14.259Z,57.50
2023-03-07T07:51:17.305Z,56.00
2023-03-07T07:56:20.206Z,58.90
2023-03-07T08:01:24.801Z,56.20
2023-03-07T08:06:28.008Z,56.20
2023-03-07T08:11:31.180Z,56.70
2023-03-07T08:16:34.110Z,53.70
2023-03-07T08:21:36.992Z,51.10
2023-03-07T08:26:39.809Z,50.80
2023-03-07T08:32:02.857Z,51.70
2023-03-07T08:37:05.671Z,53.50
2023-03-07T08:42:08.572Z,51.10
2023-03-07T08:47:13.422Z,48.80
2023-03-07T08:52:16.291Z,53.20
2023-03-07T08:57:19.353Z,54.50
2023-03-07T09:02:22.269Z,56.40
2023-03-07T09:07:25.247Z,57.40
2023-03-07T09:12:29.613Z,60.60
2023-03-07T09:17:32.426Z,57.60
2023-03-07T09:22:35.302Z,58.00
2023-03-07T09:27:38.435Z,50.00
2023-03-07T09:32:41.598Z,53.80
2023-03-07T09:37:44.548Z,53.80
2023-03-07T09:43:03.534Z,52.30
2023-03-07T09:49:02.702Z,52.00
2023-03-07T09:54:32.954Z,46.80
2023-03-07T09:59:45.171Z,42.10
2023-03-07T10:04:51.941Z,50.40
2023-03-07T10:09:59.727Z,40.30
2023-03-07T10:15:07.856Z,36.60
2023-03-07T10:20:30.228Z,38.60
2023-03-07T10:25:45.030Z,39.00
2023-03-07T10:30:49.397Z,40.90
2023-03-07T10:35:59.325Z,47.60
2023-03-07T10:41:22.232Z,42.70
2023-03-07T10:46:30.483Z,40.70
2023-03-07T10:52:28.003Z,43.50
2023-03-07T10:57:30.778Z,44.20
2023-03-07T11:02:41.057Z,43.60
2023-03-07T11:07:43.878Z,46.10
2023-03-07T11:12:48.157Z,38.20
2023-03-07T11:17:52.002Z,45.30
2023-03-07T11:23:16.838Z,42.10
2023-03-07T11:28:34.805Z,42.60
2023-03-07T11:33:44.348Z,40.10
2023-03-07T11:39:59.215Z,41.60
2023-03-07T11:45:41.723Z,41.10
2023-03-07T11:50:51.505Z,42.80
2023-03-07T11:56:24.763Z,37.70
2023-03-07T12:01:30.540Z,39.60
2023-03-07T12:07:27.207Z,36.70
2023-03-07T12:13:12.088Z,32.90
2023-03-07T12:18:24.478Z,33.60
2023-03-07T12:23:33.980Z,28.80
2023-03-07T12:28:43.024Z,27.70
2023-03-07T12:34:09.789Z,29.50
2023-03-07T12:39:23.786Z,28.60
2023-03-07T12:44:53.241Z,29.00
2023-03-07T12:50:12.413Z,28.30
2023-03-07T12:55:29.775Z,25.00
2023-03-07T13:00:33.306Z,22.60
2023-03-07T13:05:38.307Z,23.50
2023-03-07T13:10:41.277Z,23.20
2023-03-07T13:16:01.967Z,22.20
2023-03-07T13:21:32.783Z,23.60
2023-03-07T13:26:35.834Z,23.60
2023-03-07T13:31:39.495Z,22.10
2023-03-07T13:36:42.451Z,24.70
2023-03-07T13:41:50.027Z,19.90
2023-03-07T13:46:55.758Z,22.30
2023-03-07T13:52:33.313Z,19.50
2023-03-07T13:57:38.808Z,22.80
2023-03-07T14:02:43.901Z,21.70
2023-03-07T14:07:51.541Z,20.30
2023-03-07T14:13:32.362Z,21.50
2023-03-07T14:18:53.582Z,19.40
2023-03-07T14:24:23.313Z,19.10
2023-03-07T14:29:27.785Z,22.90
2023-03-07T14:34:33.440Z,18.10
2023-03-07T14:39:47.485Z,18.50
2023-03-07T14:45:11.793Z,17.30
2023-03-07T14:50:18.720Z,17.30
2023-03-07T14:55:23.276Z,17.30
2023-03-07T15:00:32.709Z,17.50
2023-03-07T15:05:50.559Z,17.30
2023-03-07T15:11:22.629Z,19.10
2023-03-07T15:16:54.142Z,17.70
2023-03-07T15:22:00.900Z,19.40
2023-03-07T15:27:04.997Z,21.20
2023-03-07T15:32:31.702Z,17.50
2023-03-07T15:37:36.528Z,18.20
2023-03-07T15:42:52.936Z,16.60
2023-03-07T15:47:55.837Z,19.60
2023-03-07T15:53:10.248Z,19.10
2023-03-07T15:58:14.121Z,18.80
2023-03-07T16:03:29.328Z,16.70
2023-03-07T16:08:32.273Z,20.40
2023-03-07T16:13:42.559Z,18.40
2023-03-07T16:18:45.440Z,20.00
2023-03-07T16:23:48.465Z,20.60
2023-03-07T16:28:51.788Z,18.00
2023-03-07T16:33:56.185Z,17.40
2023-03-07T16:38:59.152Z,19.10
2023-03-07T16:44:02.747Z,19.70
2023-03-07T16:49:05.525Z,21.20
2023-03-07T16:54:08.482Z,20.10
2023-03-07T16:59:16.122Z,24.10
2023-03-07T17:04:18.959Z,23.60
2023-03-07T17:09:22.195Z,24.90
2023-03-07T17:14:24.993Z,24.60
2023-03-07T17:19:31.007Z,24.30
2023-03-07T17:24:33.889Z,24.70
2023-03-07T17:29:49.859Z,22.30
2023-03-07T17:34:52.852Z,22.40
2023-03-07T17:39:55.650Z,26.20
2023-03-07T17:44:58.478Z,24.60
2023-03-07T17:50:01.788Z,22.20
2023-03-07T17:55:09.655Z,22.70
2023-03-07T18:00:14.327Z,19.90
2023-03-07T18:05:19.067Z,21.30
2023-03-07T18:10:22.945Z,20.60
2023-03-07T18:15:27.762Z,19.40
2023-03-07T18:20:31.124Z,20.60
2023-03-07T18:25:35.333Z,21.00
2023-03-07T18:30:38.125Z,21.30
2023-03-07T18:35:40.962Z,18.90
2023-03-07T18:40:45.373Z,21.50
2023-03-07T18:45:48.270Z,19.70
2023-03-07T18:50:59.284Z,20.60
2023-03-07T18:56:07.835Z,19.30
2023-03-07T19:01:19.577Z,21.50
2023-03-07T19:06:24.016Z,20.60
2023-03-07T19:11:26.889Z,18.60
2023-03-07T19:16:29.872Z,19.30
2023-03-07T19:21:32.965Z,19.40
2023-03-07T19:26:35.903Z,18.40
2023-03-07T19:31:39.019Z,19.80
2023-03-07T19:36:41.934Z,18.50
2023-03-07T19:41:47.941Z,20.00
2023-03-07T19:46:50.827Z,17.20
2023-03-07T19:51:53.593Z,17.50
2023-03-07T19:56:56.414Z,17.90
2023-03-07T20:01:59.276Z,16.70
2023-03-07T20:07:02.294Z,17.50
2023-03-07T20:12:05.540Z,16.60
2023-03-07T20:17:10.777Z,18.70
2023-03-07T20:22:13.794Z,16.30
2023-03-07T20:27:20.490Z,17.30
2023-03-07T20:32:23.496Z,15.90
2023-03-07T20:37:27.674Z,17.00
2023-03-07T20:42:30.442Z,17.90
2023-03-07T20:47:36.391Z,19.40
2023-03-07T20:52:39.495Z,15.70
2023-03-07T20:57:42.398Z,18.40
2023-03-07T21:02:48.052Z,18.50
2023-03-07T21:07:51.262Z,18.30
2023-03-07T21:12:54.021Z,19.50
2023-03-07T21:17:56.831Z,19.80
2023-03-07T21:22:59.848Z,17.50
2023-03-07T21:28:02.812Z,18.80
2023-03-07T21:33:05.596Z,18.60
2023-03-07T21:38:08.474Z,16.10
2023-03-07T21:43:12.720Z,15.00
2023-03-07T21:48:17.192Z,17.80
2023-03-07T21:53:20.223Z,15.70
2023-03-07T21:58:23.227Z,16.20
2023-03-07T22:03:27.895Z,14.50
2023-03-07T22:08:30.720Z,15.40
2023-03-07T22:13:35.130Z,15.10
2023-03-07T22:18:38.045Z,14.30
2023-03-07T22:23:41.663Z,15.30
2023-03-07T22:28:44.640Z,12.80
2023-03-07T22:33:47.668Z,13.00
2023-03-07T22:38:58.078Z,8.50
2023-03-07T22:44:01.082Z,7.80
2023-03-07T22:49:03.886Z,8.50
2023-03-07T22:54:07.279Z,6.90
2023-03-07T22:59:10.271Z,5.60
2023-03-07T23:04:13.586Z,2.80
2023-03-07T23:09:16.550Z,2.90
2023-03-07T23:14:19.353Z,1.80
2023-03-07T23:19:22.166Z,2.60
2023-03-07T23:24:25.087Z,3.30
2023-03-07T23:29:28.071Z,2.50
2023-03-07T23:34:31.036Z,2.40
2023-03-07T23:39:33.833Z,3.00
2023-03-07T23:44:36.754Z,2.00
2023-03-07T23:49:39.630Z,2.70
2023-03-07T23:54:45.334Z,1.70
2023-03-07T23:59:48.875Z,2.50
